sensor_id;sensor_type;location;lat;lon;timestamp;P1;durP1;ratioP1;P2;durP2;ratioP2
54795;SDS011;40693;43.884;20.340;2023-04-03T00:01:09;13.77;;;9.30;;
54795;SDS011;40693;43.884;20.340;2023-04-03T00:03:35;14.57;;;9.48;;
54795;SDS011;40693;43.884;20.340;2023-04-03T00:06:02;15.55;;;9.75;;
54795;SDS011;40693;43.884;20.340;2023-04-03T00:08:28;14.95;;;8.43;;
54795;SDS011;40693;43.884;20.340;2023-04-03T00:10:56;13.98;;;10.32;;
54795;SDS011;40693;43.884;20.340;2023-04-03T00:13:22;15.27;;;9.93;;
54795;SDS011;40693;43.884;20.340;2023-04-03T00:15:48;16.02;;;10.20;;
54795;SDS011;40693;43.884;20.340;2023-04-03T00:18:14;14.60;;;8.73;;
54795;SDS011;40693;43.884;20.340;2023-04-03T00:20:40;18.67;;;10.43;;
54795;SDS011;40693;43.884;20.340;2023-04-03T00:23:06;19.50;;;11.05;;
54795;SDS011;40693;43.884;20.340;2023-04-03T00:25:32;16.83;;;10.07;;
54795;SDS011;40693;43.884;20.340;2023-04-03T00:27:58;18.13;;;9.15;;
54795;SDS011;40693;43.884;20.340;2023-04-03T00:30:24;17.25;;;11.60;;
54795;SDS011;40693;43.884;20.340;2023-04-03T00:32:50;17.23;;;12.45;;
54795;SDS011;40693;43.884;20.340;2023-04-03T00:35:17;21.58;;;13.57;;
54795;SDS011;40693;43.884;20.340;2023-04-03T00:37:44;29.15;;;17.55;;
54795;SDS011;40693;43.884;20.340;2023-04-03T00:40:10;21.17;;;15.18;;
54795;SDS011;40693;43.884;20.340;2023-04-03T00:42:38;20.95;;;12.52;;
54795;SDS011;40693;43.884;20.340;2023-04-03T00:47:31;16.77;;;11.05;;
54795;SDS011;40693;43.884;20.340;2023-04-03T00:49:57;17.58;;;11.75;;
54795;SDS011;40693;43.884;20.340;2023-04-03T00:52:25;15.25;;;10.18;;
54795;SDS011;40693;43.884;20.340;2023-04-03T00:54:55;15.27;;;10.68;;
54795;SDS011;40693;43.884;20.340;2023-04-03T00:57:26;15.15;;;10.93;;
54795;SDS011;40693;43.884;20.340;2023-04-03T00:59:54;18.85;;;11.80;;
54795;SDS011;40693;43.884;20.340;2023-04-03T01:02:25;12.85;;;9.35;;
54795;SDS011;40693;43.884;20.340;2023-04-03T01:04:51;13.23;;;8.98;;
54795;SDS011;40693;43.884;20.340;2023-04-03T01:07:18;14.65;;;8.43;;
54795;SDS011;40693;43.884;20.340;2023-04-03T01:09:52;10.05;;;6.75;;
54795;SDS011;40693;43.884;20.340;2023-04-03T01:12:26;11.13;;;6.72;;
54795;SDS011;40693;43.884;20.340;2023-04-03T01:14:55;7.65;;;5.15;;
54795;SDS011;40693;43.884;20.340;2023-04-03T01:17:27;8.95;;;4.63;;
54795;SDS011;40693;43.884;20.340;2023-04-03T01:25:38;6.05;;;4.53;;
54795;SDS011;40693;43.884;20.340;2023-04-03T01:28:05;7.00;;;4.00;;
54795;SDS011;40693;43.884;20.340;2023-04-03T01:30:34;6.22;;;2.97;;
54795;SDS011;40693;43.884;20.340;2023-04-03T01:33:07;5.68;;;4.13;;
54795;SDS011;40693;43.884;20.340;2023-04-03T01:35:33;6.22;;;3.38;;
54795;SDS011;40693;43.884;20.340;2023-04-03T01:37:59;5.70;;;2.72;;
54795;SDS011;40693;43.884;20.340;2023-04-03T01:40:25;4.35;;;3.30;;
54795;SDS011;40693;43.884;20.340;2023-04-03T01:42:51;8.13;;;2.90;;
54795;SDS011;40693;43.884;20.340;2023-04-03T01:45:16;4.47;;;2.90;;
54795;SDS011;40693;43.884;20.340;2023-04-03T01:47:42;4.30;;;2.97;;
54795;SDS011;40693;43.884;20.340;2023-04-03T01:50:08;6.97;;;3.15;;
54795;SDS011;40693;43.884;20.340;2023-04-03T01:52:34;4.60;;;3.00;;
54795;SDS011;40693;43.884;20.340;2023-04-03T01:54:59;4.05;;;2.90;;
54795;SDS011;40693;43.884;20.340;2023-04-03T01:57:25;5.82;;;3.25;;
54795;SDS011;40693;43.884;20.340;2023-04-03T01:59:51;6.40;;;2.78;;
54795;SDS011;40693;43.884;20.340;2023-04-03T02:02:16;6.45;;;4.07;;
54795;SDS011;40693;43.884;20.340;2023-04-03T02:04:42;6.68;;;4.18;;
54795;SDS011;40693;43.884;20.340;2023-04-03T02:07:08;5.72;;;5.00;;
54795;SDS011;40693;43.884;20.340;2023-04-03T02:09:34;5.40;;;3.78;;
54795;SDS011;40693;43.884;20.340;2023-04-03T02:11:59;6.15;;;3.80;;
54795;SDS011;40693;43.884;20.340;2023-04-03T02:14:25;5.95;;;4.00;;
54795;SDS011;40693;43.884;20.340;2023-04-03T02:16:52;5.10;;;3.30;;
54795;SDS011;40693;43.884;20.340;2023-04-03T02:19:18;5.82;;;3.67;;
54795;SDS011;40693;43.884;20.340;2023-04-03T02:21:43;8.63;;;5.53;;
54795;SDS011;40693;43.884;20.340;2023-04-03T02:24:09;7.75;;;4.65;;
54795;SDS011;40693;43.884;20.340;2023-04-03T02:26:35;8.40;;;5.00;;
54795;SDS011;40693;43.884;20.340;2023-04-03T02:29:01;5.75;;;4.38;;
54795;SDS011;40693;43.884;20.340;2023-04-03T02:31:26;7.28;;;4.55;;
54795;SDS011;40693;43.884;20.340;2023-04-03T02:33:52;7.03;;;5.20;;
54795;SDS011;40693;43.884;20.340;2023-04-03T02:36:18;8.48;;;5.15;;
54795;SDS011;40693;43.884;20.340;2023-04-03T02:38:43;6.15;;;4.57;;
54795;SDS011;40693;43.884;20.340;2023-04-03T02:41:11;7.40;;;5.45;;
54795;SDS011;40693;43.884;20.340;2023-04-03T02:43:37;6.88;;;4.85;;
54795;SDS011;40693;43.884;20.340;2023-04-03T02:46:04;7.00;;;5.30;;
54795;SDS011;40693;43.884;20.340;2023-04-03T02:48:29;8.93;;;7.05;;
54795;SDS011;40693;43.884;20.340;2023-04-03T02:50:56;11.43;;;6.78;;
54795;SDS011;40693;43.884;20.340;2023-04-03T02:53:22;10.68;;;6.57;;
54795;SDS011;40693;43.884;20.340;2023-04-03T02:55:48;9.50;;;6.85;;
54795;SDS011;40693;43.884;20.340;2023-04-03T02:58:14;9.20;;;7.47;;
54795;SDS011;40693;43.884;20.340;2023-04-03T03:00:40;10.55;;;7.78;;
54795;SDS011;40693;43.884;20.340;2023-04-03T03:03:06;13.38;;;9.15;;
54795;SDS011;40693;43.884;20.340;2023-04-03T03:05:31;10.07;;;7.90;;
54795;SDS011;40693;43.884;20.340;2023-04-03T03:07:57;12.68;;;8.88;;
54795;SDS011;40693;43.884;20.340;2023-04-03T03:10:23;11.90;;;7.85;;
54795;SDS011;40693;43.884;20.340;2023-04-03T03:12:49;10.95;;;8.13;;
54795;SDS011;40693;43.884;20.340;2023-04-03T03:15:15;11.18;;;8.45;;
54795;SDS011;40693;43.884;20.340;2023-04-03T03:17:42;13.63;;;10.27;;
54795;SDS011;40693;43.884;20.340;2023-04-03T03:20:08;11.57;;;8.93;;
54795;SDS011;40693;43.884;20.340;2023-04-03T03:22:34;14.15;;;9.57;;
54795;SDS011;40693;43.884;20.340;2023-04-03T03:25:01;15.57;;;9.38;;
54795;SDS011;40693;43.884;20.340;2023-04-03T03:27:27;11.40;;;8.65;;
54795;SDS011;40693;43.884;20.340;2023-04-03T03:29:53;7.72;;;5.60;;
54795;SDS011;40693;43.884;20.340;2023-04-03T03:32:19;9.10;;;5.78;;
54795;SDS011;40693;43.884;20.340;2023-04-03T03:34:45;13.45;;;9.02;;
54795;SDS011;40693;43.884;20.340;2023-04-03T03:37:11;16.70;;;10.80;;
54795;SDS011;40693;43.884;20.340;2023-04-03T03:39:37;19.25;;;12.57;;
54795;SDS011;40693;43.884;20.340;2023-04-03T03:42:02;23.02;;;14.68;;
54795;SDS011;40693;43.884;20.340;2023-04-03T03:44:28;22.98;;;14.65;;
54795;SDS011;40693;43.884;20.340;2023-04-03T03:46:54;27.33;;;16.83;;
54795;SDS011;40693;43.884;20.340;2023-04-03T03:49:21;24.65;;;14.50;;
54795;SDS011;40693;43.884;20.340;2023-04-03T03:51:46;22.35;;;14.05;;
54795;SDS011;40693;43.884;20.340;2023-04-03T03:54:12;22.60;;;15.18;;
54795;SDS011;40693;43.884;20.340;2023-04-03T03:56:38;18.35;;;11.80;;
54795;SDS011;40693;43.884;20.340;2023-04-03T03:59:05;14.52;;;9.27;;
54795;SDS011;40693;43.884;20.340;2023-04-03T04:01:30;12.05;;;7.75;;
54795;SDS011;40693;43.884;20.340;2023-04-03T04:03:57;10.63;;;6.97;;
54795;SDS011;40693;43.884;20.340;2023-04-03T04:06:23;8.10;;;5.15;;
54795;SDS011;40693;43.884;20.340;2023-04-03T04:08:48;7.38;;;5.47;;
54795;SDS011;40693;43.884;20.340;2023-04-03T04:11:14;6.47;;;5.05;;
54795;SDS011;40693;43.884;20.340;2023-04-03T04:13:40;6.38;;;5.30;;
54795;SDS011;40693;43.884;20.340;2023-04-03T04:16:06;7.03;;;6.32;;
54795;SDS011;40693;43.884;20.340;2023-04-03T04:18:32;7.63;;;5.38;;
54795;SDS011;40693;43.884;20.340;2023-04-03T04:20:57;10.43;;;5.90;;
54795;SDS011;40693;43.884;20.340;2023-04-03T04:23:23;7.60;;;5.65;;
54795;SDS011;40693;43.884;20.340;2023-04-03T04:25:49;6.70;;;5.18;;
54795;SDS011;40693;43.884;20.340;2023-04-03T04:28:15;9.70;;;6.05;;
54795;SDS011;40693;43.884;20.340;2023-04-03T04:30:41;13.95;;;7.53;;
54795;SDS011;40693;43.884;20.340;2023-04-03T04:33:07;14.95;;;8.82;;
54795;SDS011;40693;43.884;20.340;2023-04-03T04:35:33;14.25;;;7.85;;
54795;SDS011;40693;43.884;20.340;2023-04-03T04:38:00;9.15;;;5.85;;
54795;SDS011;40693;43.884;20.340;2023-04-03T04:40:27;11.15;;;7.35;;
54795;SDS011;40693;43.884;20.340;2023-04-03T04:42:53;9.30;;;6.55;;
54795;SDS011;40693;43.884;20.340;2023-04-03T04:45:19;10.85;;;7.63;;
54795;SDS011;40693;43.884;20.340;2023-04-03T04:47:45;15.45;;;7.68;;
54795;SDS011;40693;43.884;20.340;2023-04-03T04:50:11;13.85;;;7.97;;
54795;SDS011;40693;43.884;20.340;2023-04-03T04:52:37;16.27;;;8.65;;
54795;SDS011;40693;43.884;20.340;2023-04-03T04:55:03;15.52;;;9.70;;
54795;SDS011;40693;43.884;20.340;2023-04-03T04:57:29;15.65;;;9.35;;
54795;SDS011;40693;43.884;20.340;2023-04-03T04:59:55;17.17;;;9.75;;
54795;SDS011;40693;43.884;20.340;2023-04-03T05:02:21;19.17;;;10.88;;
54795;SDS011;40693;43.884;20.340;2023-04-03T05:04:47;16.67;;;10.52;;
54795;SDS011;40693;43.884;20.340;2023-04-03T05:07:15;17.15;;;10.93;;
54795;SDS011;40693;43.884;20.340;2023-04-03T05:09:41;18.98;;;11.95;;
54795;SDS011;40693;43.884;20.340;2023-04-03T05:12:07;18.67;;;12.02;;
54795;SDS011;40693;43.884;20.340;2023-04-03T05:14:33;23.70;;;13.82;;
54795;SDS011;40693;43.884;20.340;2023-04-03T05:16:58;26.48;;;11.38;;
54795;SDS011;40693;43.884;20.340;2023-04-03T05:19:24;19.40;;;10.95;;
54795;SDS011;40693;43.884;20.340;2023-04-03T05:21:50;17.77;;;11.15;;
54795;SDS011;40693;43.884;20.340;2023-04-03T05:24:16;23.67;;;13.07;;
54795;SDS011;40693;43.884;20.340;2023-04-03T05:26:42;19.17;;;11.20;;
54795;SDS011;40693;43.884;20.340;2023-04-03T05:29:09;21.10;;;11.25;;
54795;SDS011;40693;43.884;20.340;2023-04-03T05:31:35;14.35;;;8.70;;
54795;SDS011;40693;43.884;20.340;2023-04-03T05:34:00;10.73;;;6.82;;
54795;SDS011;40693;43.884;20.340;2023-04-03T05:36:26;11.38;;;6.82;;
54795;SDS011;40693;43.884;20.340;2023-04-03T05:38:52;9.82;;;6.43;;
54795;SDS011;40693;43.884;20.340;2023-04-03T05:41:18;11.30;;;6.90;;
54795;SDS011;40693;43.884;20.340;2023-04-03T05:43:46;15.63;;;9.63;;
54795;SDS011;40693;43.884;20.340;2023-04-03T05:46:12;14.63;;;8.93;;
54795;SDS011;40693;43.884;20.340;2023-04-03T05:48:40;11.18;;;6.18;;
54795;SDS011;40693;43.884;20.340;2023-04-03T05:51:06;13.63;;;6.28;;
54795;SDS011;40693;43.884;20.340;2023-04-03T05:53:38;6.57;;;5.15;;
54795;SDS011;40693;43.884;20.340;2023-04-03T05:56:04;7.93;;;5.68;;
54795;SDS011;40693;43.884;20.340;2023-04-03T05:58:30;7.20;;;5.28;;
54795;SDS011;40693;43.884;20.340;2023-04-03T06:00:56;13.13;;;5.50;;
54795;SDS011;40693;43.884;20.340;2023-04-03T06:03:22;7.10;;;5.00;;
54795;SDS011;40693;43.884;20.340;2023-04-03T06:05:49;8.07;;;5.25;;
54795;SDS011;40693;43.884;20.340;2023-04-03T06:08:15;9.98;;;5.70;;
54795;SDS011;40693;43.884;20.340;2023-04-03T06:10:41;8.75;;;6.38;;
54795;SDS011;40693;43.884;20.340;2023-04-03T06:13:06;9.80;;;6.07;;
54795;SDS011;40693;43.884;20.340;2023-04-03T06:15:32;8.93;;;5.70;;
54795;SDS011;40693;43.884;20.340;2023-04-03T06:17:59;8.65;;;5.88;;
54795;SDS011;40693;43.884;20.340;2023-04-03T06:20:25;7.22;;;4.70;;
54795;SDS011;40693;43.884;20.340;2023-04-03T06:22:51;7.30;;;4.07;;
54795;SDS011;40693;43.884;20.340;2023-04-03T06:25:16;7.05;;;4.10;;
54795;SDS011;40693;43.884;20.340;2023-04-03T06:27:44;6.22;;;4.25;;
54795;SDS011;40693;43.884;20.340;2023-04-03T06:30:10;5.22;;;3.35;;
54795;SDS011;40693;43.884;20.340;2023-04-03T06:32:36;4.80;;;3.63;;
54795;SDS011;40693;43.884;20.340;2023-04-03T06:35:03;4.57;;;3.05;;
54795;SDS011;40693;43.884;20.340;2023-04-03T06:37:30;5.97;;;4.07;;
54795;SDS011;40693;43.884;20.340;2023-04-03T06:39:57;4.10;;;2.78;;
54795;SDS011;40693;43.884;20.340;2023-04-03T06:42:23;6.38;;;3.03;;
54795;SDS011;40693;43.884;20.340;2023-04-03T06:44:49;6.38;;;4.35;;
54795;SDS011;40693;43.884;20.340;2023-04-03T06:47:15;8.02;;;3.85;;
54795;SDS011;40693;43.884;20.340;2023-04-03T06:49:42;5.30;;;3.80;;
54795;SDS011;40693;43.884;20.340;2023-04-03T06:52:08;4.65;;;3.72;;
54795;SDS011;40693;43.884;20.340;2023-04-03T06:54:37;5.88;;;3.78;;
54795;SDS011;40693;43.884;20.340;2023-04-03T06:57:03;6.13;;;3.40;;
54795;SDS011;40693;43.884;20.340;2023-04-03T06:59:29;6.07;;;4.45;;
54795;SDS011;40693;43.884;20.340;2023-04-03T07:01:54;9.38;;;5.78;;
54795;SDS011;40693;43.884;20.340;2023-04-03T07:04:20;7.78;;;4.65;;
54795;SDS011;40693;43.884;20.340;2023-04-03T07:06:46;6.53;;;4.63;;
54795;SDS011;40693;43.884;20.340;2023-04-03T07:09:13;7.90;;;5.15;;
54795;SDS011;40693;43.884;20.340;2023-04-03T07:11:40;5.70;;;3.80;;
54795;SDS011;40693;43.884;20.340;2023-04-03T07:14:05;6.57;;;4.22;;
54795;SDS011;40693;43.884;20.340;2023-04-03T07:16:33;5.28;;;3.65;;
54795;SDS011;40693;43.884;20.340;2023-04-03T07:18:59;5.72;;;4.45;;
54795;SDS011;40693;43.884;20.340;2023-04-03T07:21:26;4.88;;;3.20;;
54795;SDS011;40693;43.884;20.340;2023-04-03T07:23:53;5.22;;;3.67;;
54795;SDS011;40693;43.884;20.340;2023-04-03T07:26:19;9.15;;;5.80;;
54795;SDS011;40693;43.884;20.340;2023-04-03T07:28:46;8.40;;;4.35;;
54795;SDS011;40693;43.884;20.340;2023-04-03T07:31:14;9.15;;;4.75;;
54795;SDS011;40693;43.884;20.340;2023-04-03T07:33:42;9.27;;;5.28;;
54795;SDS011;40693;43.884;20.340;2023-04-03T07:36:08;5.63;;;3.17;;
54795;SDS011;40693;43.884;20.340;2023-04-03T07:38:36;3.88;;;2.78;;
54795;SDS011;40693;43.884;20.340;2023-04-03T07:41:02;7.25;;;3.90;;
54795;SDS011;40693;43.884;20.340;2023-04-03T07:43:28;6.65;;;3.67;;
54795;SDS011;40693;43.884;20.340;2023-04-03T07:45:54;5.30;;;3.22;;
54795;SDS011;40693;43.884;20.340;2023-04-03T07:48:20;5.70;;;4.20;;
54795;SDS011;40693;43.884;20.340;2023-04-03T07:50:48;4.43;;;3.00;;
54795;SDS011;40693;43.884;20.340;2023-04-03T07:53:14;6.18;;;3.38;;
54795;SDS011;40693;43.884;20.340;2023-04-03T07:55:40;8.63;;;4.80;;
54795;SDS011;40693;43.884;20.340;2023-04-03T07:58:12;7.20;;;4.40;;
54795;SDS011;40693;43.884;20.340;2023-04-03T08:00:39;5.15;;;3.78;;
54795;SDS011;40693;43.884;20.340;2023-04-03T08:03:06;10.38;;;5.55;;
54795;SDS011;40693;43.884;20.340;2023-04-03T08:05:42;6.78;;;4.18;;
54795;SDS011;40693;43.884;20.340;2023-04-03T08:08:12;7.60;;;4.05;;
54795;SDS011;40693;43.884;20.340;2023-04-03T08:10:39;11.98;;;5.20;;
54795;SDS011;40693;43.884;20.340;2023-04-03T08:13:05;5.40;;;3.70;;
54795;SDS011;40693;43.884;20.340;2023-04-03T08:15:32;11.05;;;5.72;;
54795;SDS011;40693;43.884;20.340;2023-04-03T08:17:58;5.72;;;3.33;;
54795;SDS011;40693;43.884;20.340;2023-04-03T08:20:25;8.25;;;5.63;;
54795;SDS011;40693;43.884;20.340;2023-04-03T08:22:51;10.55;;;4.60;;
54795;SDS011;40693;43.884;20.340;2023-04-03T08:25:17;6.93;;;4.35;;
54795;SDS011;40693;43.884;20.340;2023-04-03T08:27:43;8.98;;;5.30;;
54795;SDS011;40693;43.884;20.340;2023-04-03T08:30:10;6.70;;;4.47;;
54795;SDS011;40693;43.884;20.340;2023-04-03T08:32:36;7.20;;;4.32;;
54795;SDS011;40693;43.884;20.340;2023-04-03T08:35:04;6.47;;;4.35;;
54795;SDS011;40693;43.884;20.340;2023-04-03T08:37:30;6.90;;;4.63;;
54795;SDS011;40693;43.884;20.340;2023-04-03T08:39:56;7.65;;;5.55;;
54795;SDS011;40693;43.884;20.340;2023-04-03T08:42:43;17.10;;;10.52;;
54795;SDS011;40693;43.884;20.340;2023-04-03T08:45:22;54.97;;;23.67;;
54795;SDS011;40693;43.884;20.340;2023-04-03T08:48:16;14.88;;;9.02;;
54795;SDS011;40693;43.884;20.340;2023-04-03T08:50:48;6.70;;;5.13;;
54795;SDS011;40693;43.884;20.340;2023-04-03T08:53:18;19.38;;;11.63;;
54795;SDS011;40693;43.884;20.340;2023-04-03T08:55:47;10.20;;;7.25;;
54795;SDS011;40693;43.884;20.340;2023-04-03T09:00:49;11.27;;;7.05;;
54795;SDS011;40693;43.884;20.340;2023-04-03T09:03:28;9.75;;;5.88;;
54795;SDS011;40693;43.884;20.340;2023-04-03T09:06:14;6.28;;;3.72;;
54795;SDS011;40693;43.884;20.340;2023-04-03T09:08:53;8.80;;;4.55;;
54795;SDS011;40693;43.884;20.340;2023-04-03T09:11:52;7.93;;;4.85;;
54795;SDS011;40693;43.884;20.340;2023-04-03T09:22:34;9.70;;;5.70;;
54795;SDS011;40693;43.884;20.340;2023-04-03T09:25:23;10.55;;;6.00;;
54795;SDS011;40693;43.884;20.340;2023-04-03T09:27:57;12.13;;;7.07;;
54795;SDS011;40693;43.884;20.340;2023-04-03T09:30:25;13.18;;;8.52;;
54795;SDS011;40693;43.884;20.340;2023-04-03T09:32:52;12.00;;;8.13;;
54795;SDS011;40693;43.884;20.340;2023-04-03T09:35:26;8.30;;;5.68;;
54795;SDS011;40693;43.884;20.340;2023-04-03T09:42:58;6.43;;;4.55;;
54795;SDS011;40693;43.884;20.340;2023-04-03T09:45:35;8.40;;;5.28;;
54795;SDS011;40693;43.884;20.340;2023-04-03T09:48:05;5.28;;;3.53;;
54795;SDS011;40693;43.884;20.340;2023-04-03T09:50:32;7.57;;;5.13;;
54795;SDS011;40693;43.884;20.340;2023-04-03T09:53:02;5.78;;;3.20;;
54795;SDS011;40693;43.884;20.340;2023-04-03T09:55:49;19.77;;;12.18;;
54795;SDS011;40693;43.884;20.340;2023-04-03T10:01:03;5.78;;;3.38;;
54795;SDS011;40693;43.884;20.340;2023-04-03T10:03:33;8.93;;;6.70;;
54795;SDS011;40693;43.884;20.340;2023-04-03T10:06:00;9.95;;;6.65;;
54795;SDS011;40693;43.884;20.340;2023-04-03T10:08:32;7.97;;;5.07;;
54795;SDS011;40693;43.884;20.340;2023-04-03T10:11:07;8.25;;;5.45;;
54795;SDS011;40693;43.884;20.340;2023-04-03T10:13:34;12.43;;;7.50;;
54795;SDS011;40693;43.884;20.340;2023-04-03T10:16:07;10.40;;;5.68;;
54795;SDS011;40693;43.884;20.340;2023-04-03T10:21:14;12.00;;;7.22;;
54795;SDS011;40693;43.884;20.340;2023-04-03T10:23:48;12.02;;;7.93;;
54795;SDS011;40693;43.884;20.340;2023-04-03T10:35:02;13.15;;;7.75;;
54795;SDS011;40693;43.884;20.340;2023-04-03T10:40:39;15.25;;;9.45;;
54795;SDS011;40693;43.884;20.340;2023-04-03T10:45:57;29.95;;;16.35;;
54795;SDS011;40693;43.884;20.340;2023-04-03T10:51:44;19.88;;;12.18;;
54795;SDS011;40693;43.884;20.340;2023-04-03T10:54:13;19.15;;;10.70;;
54795;SDS011;40693;43.884;20.340;2023-04-03T10:56:57;16.45;;;10.43;;
54795;SDS011;40693;43.884;20.340;2023-04-03T11:05:28;20.88;;;12.30;;
54795;SDS011;40693;43.884;20.340;2023-04-03T11:07:51;18.80;;;11.30;;
54795;SDS011;40693;43.884;20.340;2023-04-03T11:10:25;21.02;;;12.20;;
54795;SDS011;40693;43.884;20.340;2023-04-03T11:13:20;22.10;;;12.77;;
54795;SDS011;40693;43.884;20.340;2023-04-03T11:15:51;28.65;;;16.65;;
54795;SDS011;40693;43.884;20.340;2023-04-03T11:21:20;25.70;;;15.18;;
54795;SDS011;40693;43.884;20.340;2023-04-03T11:24:00;19.30;;;11.48;;
54795;SDS011;40693;43.884;20.340;2023-04-03T11:26:31;25.48;;;16.90;;
54795;SDS011;40693;43.884;20.340;2023-04-03T11:29:05;36.47;;;23.90;;
54795;SDS011;40693;43.884;20.340;2023-04-03T11:37:50;18.80;;;11.65;;
54795;SDS011;40693;43.884;20.340;2023-04-03T11:40:02;26.48;;;16.25;;
54795;SDS011;40693;43.884;20.340;2023-04-03T11:42:35;24.80;;;14.07;;
54795;SDS011;40693;43.884;20.340;2023-04-03T11:48:05;56.72;;;31.75;;
54795;SDS011;40693;43.884;20.340;2023-04-03T11:50:51;17.77;;;12.00;;
54795;SDS011;40693;43.884;20.340;2023-04-03T12:01:47;15.15;;;8.70;;
54795;SDS011;40693;43.884;20.340;2023-04-03T12:04:18;16.20;;;12.88;;
54795;SDS011;40693;43.884;20.340;2023-04-03T12:13:12;22.33;;;14.55;;
54795;SDS011;40693;43.884;20.340;2023-04-03T12:15:21;20.05;;;11.90;;
54795;SDS011;40693;43.884;20.340;2023-04-03T12:17:47;22.05;;;12.55;;
54795;SDS011;40693;43.884;20.340;2023-04-03T12:23:23;18.33;;;12.65;;
54795;SDS011;40693;43.884;20.340;2023-04-03T12:25:52;18.33;;;11.55;;
54795;SDS011;40693;43.884;20.340;2023-04-03T12:28:44;28.38;;;18.23;;
54795;SDS011;40693;43.884;20.340;2023-04-03T12:31:11;24.23;;;15.10;;
54795;SDS011;40693;43.884;20.340;2023-04-03T12:36:23;31.52;;;18.45;;
54795;SDS011;40693;43.884;20.340;2023-04-03T12:39:04;34.53;;;21.45;;
54795;SDS011;40693;43.884;20.340;2023-04-03T12:41:56;32.80;;;19.17;;
54795;SDS011;40693;43.884;20.340;2023-04-03T12:44:40;34.10;;;19.75;;
54795;SDS011;40693;43.884;20.340;2023-04-03T12:47:22;32.05;;;19.92;;
54795;SDS011;40693;43.884;20.340;2023-04-03T12:49:52;36.35;;;23.08;;
54795;SDS011;40693;43.884;20.340;2023-04-03T12:52:21;35.13;;;21.20;;
54795;SDS011;40693;43.884;20.340;2023-04-03T12:55:19;38.40;;;24.58;;
54795;SDS011;40693;43.884;20.340;2023-04-03T12:57:45;35.03;;;23.92;;
54795;SDS011;40693;43.884;20.340;2023-04-03T13:03:16;31.88;;;21.27;;
54795;SDS011;40693;43.884;20.340;2023-04-03T13:05:50;41.83;;;27.35;;
54795;SDS011;40693;43.884;20.340;2023-04-03T13:08:16;34.40;;;25.52;;
54795;SDS011;40693;43.884;20.340;2023-04-03T13:10:53;42.28;;;28.77;;
54795;SDS011;40693;43.884;20.340;2023-04-03T13:13:23;34.20;;;22.33;;
54795;SDS011;40693;43.884;20.340;2023-04-03T13:15:49;42.38;;;29.10;;
54795;SDS011;40693;43.884;20.340;2023-04-03T13:18:22;40.28;;;27.02;;
54795;SDS011;40693;43.884;20.340;2023-04-03T13:20:57;34.83;;;23.38;;
54795;SDS011;40693;43.884;20.340;2023-04-03T13:26:07;54.10;;;33.65;;
54795;SDS011;40693;43.884;20.340;2023-04-03T13:28:33;45.20;;;28.45;;
54795;SDS011;40693;43.884;20.340;2023-04-03T13:31:02;28.55;;;19.88;;
54795;SDS011;40693;43.884;20.340;2023-04-03T13:33:35;45.53;;;31.23;;
54795;SDS011;40693;43.884;20.340;2023-04-03T13:38:59;30.85;;;20.85;;
54795;SDS011;40693;43.884;20.340;2023-04-03T13:41:33;38.05;;;24.65;;
54795;SDS011;40693;43.884;20.340;2023-04-03T13:46:54;36.35;;;24.42;;
54795;SDS011;40693;43.884;20.340;2023-04-03T13:49:27;158.23;;;97.78;;
54795;SDS011;40693;43.884;20.340;2023-04-03T13:52:22;61.75;;;40.63;;
54795;SDS011;40693;43.884;20.340;2023-04-03T13:54:52;99.47;;;62.92;;
54795;SDS011;40693;43.884;20.340;2023-04-03T13:57:21;41.78;;;28.25;;
54795;SDS011;40693;43.884;20.340;2023-04-03T13:59:47;45.85;;;29.33;;
54795;SDS011;40693;43.884;20.340;2023-04-03T14:04:47;60.40;;;41.25;;
54795;SDS011;40693;43.884;20.340;2023-04-03T14:07:18;40.58;;;29.92;;
54795;SDS011;40693;43.884;20.340;2023-04-03T14:09:46;47.13;;;33.95;;
54795;SDS011;40693;43.884;20.340;2023-04-03T14:15:23;37.22;;;26.23;;
54795;SDS011;40693;43.884;20.340;2023-04-03T14:17:52;68.03;;;43.97;;
54795;SDS011;40693;43.884;20.340;2023-04-03T14:20:19;79.00;;;51.28;;
54795;SDS011;40693;43.884;20.340;2023-04-03T14:22:47;44.38;;;29.65;;
54795;SDS011;40693;43.884;20.340;2023-04-03T14:25:14;89.20;;;53.85;;
54795;SDS011;40693;43.884;20.340;2023-04-03T14:27:43;34.30;;;24.80;;
54795;SDS011;40693;43.884;20.340;2023-04-03T14:30:16;31.35;;;23.50;;
54795;SDS011;40693;43.884;20.340;2023-04-03T14:32:47;38.90;;;25.42;;
54795;SDS011;40693;43.884;20.340;2023-04-03T14:35:14;36.17;;;24.05;;
54795;SDS011;40693;43.884;20.340;2023-04-03T14:37:40;30.92;;;21.98;;
54795;SDS011;40693;43.884;20.340;2023-04-03T14:40:07;24.85;;;18.40;;
54795;SDS011;40693;43.884;20.340;2023-04-03T14:42:35;32.13;;;25.13;;
54795;SDS011;40693;43.884;20.340;2023-04-03T14:45:03;27.70;;;20.58;;
54795;SDS011;40693;43.884;20.340;2023-04-03T14:47:31;38.05;;;25.98;;
54795;SDS011;40693;43.884;20.340;2023-04-03T14:49:58;35.67;;;23.00;;
54795;SDS011;40693;43.884;20.340;2023-04-03T14:52:26;32.13;;;24.52;;
54795;SDS011;40693;43.884;20.340;2023-04-03T14:54:57;41.72;;;26.05;;
54795;SDS011;40693;43.884;20.340;2023-04-03T14:57:24;38.33;;;24.60;;
54795;SDS011;40693;43.884;20.340;2023-04-03T14:59:51;37.17;;;25.85;;
54795;SDS011;40693;43.884;20.340;2023-04-03T15:02:32;28.45;;;21.40;;
54795;SDS011;40693;43.884;20.340;2023-04-03T15:05:00;41.47;;;24.20;;
54795;SDS011;40693;43.884;20.340;2023-04-03T15:07:29;39.67;;;25.38;;
54795;SDS011;40693;43.884;20.340;2023-04-03T15:09:59;36.85;;;24.33;;
54795;SDS011;40693;43.884;20.340;2023-04-03T15:12:27;32.75;;;23.92;;
54795;SDS011;40693;43.884;20.340;2023-04-03T15:14:53;36.30;;;24.60;;
54795;SDS011;40693;43.884;20.340;2023-04-03T15:17:19;40.72;;;29.23;;
54795;SDS011;40693;43.884;20.340;2023-04-03T15:19:47;39.42;;;25.83;;
54795;SDS011;40693;43.884;20.340;2023-04-03T15:22:14;46.45;;;30.58;;
54795;SDS011;40693;43.884;20.340;2023-04-03T15:24:41;41.20;;;30.80;;
54795;SDS011;40693;43.884;20.340;2023-04-03T15:27:08;35.08;;;23.70;;
54795;SDS011;40693;43.884;20.340;2023-04-03T15:29:35;39.17;;;26.65;;
54795;SDS011;40693;43.884;20.340;2023-04-03T15:32:01;41.88;;;30.98;;
54795;SDS011;40693;43.884;20.340;2023-04-03T15:34:27;32.38;;;20.88;;
54795;SDS011;40693;43.884;20.340;2023-04-03T15:36:54;48.70;;;34.33;;
54795;SDS011;40693;43.884;20.340;2023-04-03T15:39:19;37.20;;;25.30;;
54795;SDS011;40693;43.884;20.340;2023-04-03T15:41:46;50.78;;;33.80;;
54795;SDS011;40693;43.884;20.340;2023-04-03T15:44:12;51.33;;;35.13;;
54795;SDS011;40693;43.884;20.340;2023-04-03T15:46:38;40.20;;;27.90;;
54795;SDS011;40693;43.884;20.340;2023-04-03T15:49:04;65.15;;;42.80;;
54795;SDS011;40693;43.884;20.340;2023-04-03T15:51:30;36.38;;;24.85;;
54795;SDS011;40693;43.884;20.340;2023-04-03T15:53:56;57.78;;;39.72;;
54795;SDS011;40693;43.884;20.340;2023-04-03T15:56:22;45.55;;;33.60;;
54795;SDS011;40693;43.884;20.340;2023-04-03T15:58:48;47.67;;;31.02;;
54795;SDS011;40693;43.884;20.340;2023-04-03T16:01:13;42.95;;;30.65;;
54795;SDS011;40693;43.884;20.340;2023-04-03T16:03:40;39.45;;;27.55;;
54795;SDS011;40693;43.884;20.340;2023-04-03T16:06:16;43.92;;;28.23;;
54795;SDS011;40693;43.884;20.340;2023-04-03T16:08:43;42.97;;;30.70;;
54795;SDS011;40693;43.884;20.340;2023-04-03T16:11:11;49.80;;;31.23;;